sensor_id;sensor_type;location;lat;lon;timestamp;P1;durP1;ratioP1;P2;durP2;ratioP2
59097;SDS011;44883;52.760;6.610;2022-11-15T00:01:35;17.00;;;10.15;;
59097;SDS011;44883;52.760;6.610;2022-11-15T00:04:02;25.80;;;22.83;;
59097;SDS011;44883;52.760;6.610;2022-11-15T00:06:28;20.95;;;12.50;;
59097;SDS011;44883;52.760;6.610;2022-11-15T00:08:54;20.40;;;10.52;;
59097;SDS011;44883;52.760;6.610;2022-11-15T00:11:22;21.15;;;12.68;;
59097;SDS011;44883;52.760;6.610;2022-11-15T00:13:47;21.35;;;13.43;;
59097;SDS011;44883;52.760;6.610;2022-11-15T00:16:13;24.65;;;21.90;;
59097;SDS011;44883;52.760;6.610;2022-11-15T00:18:39;22.02;;;11.55;;
59097;SDS011;44883;52.760;6.610;2022-11-15T00:21:05;20.23;;;11.30;;
59097;SDS011;44883;52.760;6.610;2022-11-15T00:23:33;24.48;;;21.85;;
59097;SDS011;44883;52.760;6.610;2022-11-15T00:25:59;24.08;;;13.00;;
59097;SDS011;44883;52.760;6.610;2022-11-15T00:28:25;24.10;;;12.88;;
59097;SDS011;44883;52.760;6.610;2022-11-15T00:30:51;23.50;;;11.88;;
59097;SDS011;44883;52.760;6.610;2022-11-15T00:33:17;20.48;;;12.10;;
59097;SDS011;44883;52.760;6.610;2022-11-15T00:35:43;21.20;;;11.00;;
59097;SDS011;44883;52.760;6.610;2022-11-15T00:38:08;23.23;;;12.25;;
59097;SDS011;44883;52.760;6.610;2022-11-15T00:40:34;24.08;;;13.07;;
59097;SDS011;44883;52.760;6.610;2022-11-15T00:43:00;25.25;;;22.15;;
59097;SDS011;44883;52.760;6.610;2022-11-15T00:45:25;27.10;;;22.60;;
59097;SDS011;44883;52.760;6.610;2022-11-15T00:47:51;20.55;;;11.52;;
59097;SDS011;44883;52.760;6.610;2022-11-15T00:50:17;21.90;;;11.25;;
59097;SDS011;44883;52.760;6.610;2022-11-15T00:52:42;25.42;;;12.75;;
59097;SDS011;44883;52.760;6.610;2022-11-15T00:55:17;23.05;;;11.30;;
59097;SDS011;44883;52.760;6.610;2022-11-15T00:57:44;19.45;;;10.75;;
59097;SDS011;44883;52.760;6.610;2022-11-15T01:00:11;26.40;;;12.63;;
59097;SDS011;44883;52.760;6.610;2022-11-15T01:02:37;25.25;;;21.52;;
59097;SDS011;44883;52.760;6.610;2022-11-15T01:05:03;22.02;;;12.05;;
59097;SDS011;44883;52.760;6.610;2022-11-15T01:07:29;22.42;;;11.80;;
59097;SDS011;44883;52.760;6.610;2022-11-15T01:09:55;21.95;;;12.10;;
59097;SDS011;44883;52.760;6.610;2022-11-15T01:12:20;24.67;;;12.75;;
59097;SDS011;44883;52.760;6.610;2022-11-15T01:14:46;26.02;;;22.60;;
59097;SDS011;44883;52.760;6.610;2022-11-15T01:17:12;28.15;;;23.38;;
59097;SDS011;44883;52.760;6.610;2022-11-15T01:19:37;20.23;;;11.15;;
59097;SDS011;44883;52.760;6.610;2022-11-15T01:22:03;27.73;;;22.75;;
59097;SDS011;44883;52.760;6.610;2022-11-15T01:24:28;27.00;;;22.35;;
59097;SDS011;44883;52.760;6.610;2022-11-15T01:26:54;27.45;;;22.50;;
59097;SDS011;44883;52.760;6.610;2022-11-15T01:29:19;23.88;;;12.75;;
59097;SDS011;44883;52.760;6.610;2022-11-15T01:31:45;23.50;;;12.93;;
59097;SDS011;44883;52.760;6.610;2022-11-15T01:34:11;26.77;;;22.67;;
59097;SDS011;44883;52.760;6.610;2022-11-15T01:36:36;19.25;;;10.90;;
59097;SDS011;44883;52.760;6.610;2022-11-15T01:39:02;26.60;;;21.23;;
59097;SDS011;44883;52.760;6.610;2022-11-15T01:41:29;22.83;;;12.32;;
59097;SDS011;44883;52.760;6.610;2022-11-15T01:44:44;21.38;;;11.75;;
59097;SDS011;44883;52.760;6.610;2022-11-15T01:47:06;21.92;;;11.85;;
59097;SDS011;44883;52.760;6.610;2022-11-15T01:52:15;21.33;;;10.32;;
59097;SDS011;44883;52.760;6.610;2022-11-15T01:54:44;23.67;;;11.90;;
59097;SDS011;44883;52.760;6.610;2022-11-15T01:57:10;22.77;;;11.60;;
59097;SDS011;44883;52.760;6.610;2022-11-15T01:59:38;28.00;;;21.85;;
59097;SDS011;44883;52.760;6.610;2022-11-15T02:02:07;22.02;;;11.10;;
59097;SDS011;44883;52.760;6.610;2022-11-15T02:04:34;28.15;;;23.00;;
59097;SDS011;44883;52.760;6.610;2022-11-15T02:07:04;23.65;;;12.50;;
59097;SDS011;44883;52.760;6.610;2022-11-15T02:09:31;28.75;;;22.83;;
59097;SDS011;44883;52.760;6.610;2022-11-15T02:11:57;24.30;;;11.23;;
59097;SDS011;44883;52.760;6.610;2022-11-15T02:14:24;25.83;;;12.43;;
59097;SDS011;44883;52.760;6.610;2022-11-15T02:27:53;36.80;;;26.20;;
59097;SDS011;44883;52.760;6.610;2022-11-15T02:33:14;29.98;;;12.95;;
59097;SDS011;44883;52.760;6.610;2022-11-15T02:36:02;38.53;;;26.67;;
59097;SDS011;44883;52.760;6.610;2022-11-15T02:38:36;30.48;;;14.63;;
59097;SDS011;44883;52.760;6.610;2022-11-15T02:41:11;40.15;;;28.23;;
59097;SDS011;44883;52.760;6.610;2022-11-15T02:43:43;42.55;;;30.08;;
59097;SDS011;44883;52.760;6.610;2022-11-15T02:49:33;32.90;;;13.57;;
59097;SDS011;44883;52.760;6.610;2022-11-15T02:52:00;44.78;;;30.23;;
59097;SDS011;44883;52.760;6.610;2022-11-15T02:54:28;47.13;;;30.33;;
59097;SDS011;44883;52.760;6.610;2022-11-15T02:56:58;46.70;;;30.70;;
59097;SDS011;44883;52.760;6.610;2022-11-15T03:11:21;32.95;;;15.00;;
59097;SDS011;44883;52.760;6.610;2022-11-15T03:19:09;32.50;;;13.82;;
59097;SDS011;44883;52.760;6.610;2022-11-15T03:21:40;46.22;;;31.75;;
59097;SDS011;44883;52.760;6.610;2022-11-15T03:24:06;32.85;;;14.60;;
59097;SDS011;44883;52.760;6.610;2022-11-15T03:26:34;55.72;;;35.45;;
59097;SDS011;44883;52.760;6.610;2022-11-15T03:29:07;53.97;;;35.20;;
59097;SDS011;44883;52.760;6.610;2022-11-15T03:31:39;37.28;;;17.25;;
59097;SDS011;44883;52.760;6.610;2022-11-15T03:34:32;33.95;;;16.45;;
59097;SDS011;44883;52.760;6.610;2022-11-15T03:37:04;40.75;;;17.10;;
59097;SDS011;44883;52.760;6.610;2022-11-15T03:39:32;58.75;;;38.10;;
59097;SDS011;44883;52.760;6.610;2022-11-15T03:47:06;40.83;;;17.70;;
59097;SDS011;44883;52.760;6.610;2022-11-15T03:49:51;61.03;;;39.33;;
59097;SDS011;44883;52.760;6.610;2022-11-15T03:52:21;60.25;;;39.35;;
59097;SDS011;44883;52.760;6.610;2022-11-15T03:54:48;66.30;;;42.75;;
59097;SDS011;44883;52.760;6.610;2022-11-15T03:57:19;77.00;;;42.70;;
59097;SDS011;44883;52.760;6.610;2022-11-15T03:59:44;75.22;;;44.67;;
59097;SDS011;44883;52.760;6.610;2022-11-15T04:02:11;43.80;;;18.10;;
59097;SDS011;44883;52.760;6.610;2022-11-15T04:04:37;34.35;;;15.68;;
59097;SDS011;44883;52.760;6.610;2022-11-15T04:07:02;74.13;;;43.00;;
59097;SDS011;44883;52.760;6.610;2022-11-15T04:09:28;71.47;;;44.05;;
59097;SDS011;44883;52.760;6.610;2022-11-15T04:11:54;41.42;;;19.52;;
59097;SDS011;44883;52.760;6.610;2022-11-15T04:14:19;37.53;;;17.05;;
59097;SDS011;44883;52.760;6.610;2022-11-15T04:16:45;75.70;;;44.42;;
59097;SDS011;44883;52.760;6.610;2022-11-15T04:19:10;44.83;;;21.08;;
59097;SDS011;44883;52.760;6.610;2022-11-15T04:21:56;72.80;;;45.08;;
59097;SDS011;44883;52.760;6.610;2022-11-15T04:24:40;46.95;;;19.50;;
59097;SDS011;44883;52.760;6.610;2022-11-15T04:27:06;47.35;;;22.10;;
59097;SDS011;44883;52.760;6.610;2022-11-15T04:29:32;65.80;;;43.03;;
59097;SDS011;44883;52.760;6.610;2022-11-15T04:32:04;71.63;;;45.38;;
59097;SDS011;44883;52.760;6.610;2022-11-15T04:36:56;72.55;;;45.60;;
59097;SDS011;44883;52.760;6.610;2022-11-15T04:42:07;66.38;;;44.28;;
59097;SDS011;44883;52.760;6.610;2022-11-15T04:44:33;39.50;;;18.92;;
59097;SDS011;44883;52.760;6.610;2022-11-15T04:46:58;68.82;;;46.50;;
59097;SDS011;44883;52.760;6.610;2022-11-15T04:49:24;70.20;;;46.05;;
59097;SDS011;44883;52.760;6.610;2022-11-15T04:51:49;43.63;;;19.83;;
59097;SDS011;44883;52.760;6.610;2022-11-15T04:54:15;40.05;;;18.48;;
59097;SDS011;44883;52.760;6.610;2022-11-15T04:56:41;47.80;;;21.35;;
59097;SDS011;44883;52.760;6.610;2022-11-15T04:59:07;58.45;;;43.33;;
59097;SDS011;44883;52.760;6.610;2022-11-15T05:01:33;65.60;;;44.42;;
59097;SDS011;44883;52.760;6.610;2022-11-15T05:03:58;60.70;;;42.80;;
59097;SDS011;44883;52.760;6.610;2022-11-15T05:06:43;44.90;;;20.63;;
59097;SDS011;44883;52.760;6.610;2022-11-15T05:09:08;35.35;;;18.23;;
59097;SDS011;44883;52.760;6.610;2022-11-15T05:11:34;52.53;;;40.13;;
59097;SDS011;44883;52.760;6.610;2022-11-15T05:13:59;55.58;;;41.38;;
59097;SDS011;44883;52.760;6.610;2022-11-15T05:16:25;49.92;;;38.45;;
59097;SDS011;44883;52.760;6.610;2022-11-15T05:18:51;54.13;;;39.33;;
59097;SDS011;44883;52.760;6.610;2022-11-15T05:21:18;50.80;;;38.85;;
59097;SDS011;44883;52.760;6.610;2022-11-15T05:23:44;52.63;;;40.63;;
59097;SDS011;44883;52.760;6.610;2022-11-15T05:26:10;52.30;;;38.22;;
59097;SDS011;44883;52.760;6.610;2022-11-15T05:28:36;46.53;;;38.00;;
59097;SDS011;44883;52.760;6.610;2022-11-15T05:31:06;49.85;;;39.17;;
59097;SDS011;44883;52.760;6.610;2022-11-15T05:33:37;50.58;;;38.50;;
59097;SDS011;44883;52.760;6.610;2022-11-15T05:38:50;46.72;;;36.47;;
59097;SDS011;44883;52.760;6.610;2022-11-15T05:41:17;31.50;;;16.08;;
59097;SDS011;44883;52.760;6.610;2022-11-15T05:43:45;48.55;;;36.45;;
59097;SDS011;44883;52.760;6.610;2022-11-15T05:46:13;48.38;;;35.42;;
59097;SDS011;44883;52.760;6.610;2022-11-15T05:48:40;46.33;;;37.08;;
59097;SDS011;44883;52.760;6.610;2022-11-15T05:51:07;50.13;;;35.90;;
59097;SDS011;44883;52.760;6.610;2022-11-15T05:53:33;45.30;;;35.03;;
59097;SDS011;44883;52.760;6.610;2022-11-15T05:56:00;46.50;;;35.28;;
59097;SDS011;44883;52.760;6.610;2022-11-15T05:58:27;45.13;;;35.53;;
59097;SDS011;44883;52.760;6.610;2022-11-15T06:00:53;36.97;;;18.80;;
59097;SDS011;44883;52.760;6.610;2022-11-15T06:03:19;44.85;;;35.00;;
59097;SDS011;44883;52.760;6.610;2022-11-15T06:05:45;44.80;;;33.65;;
59097;SDS011;44883;52.760;6.610;2022-11-15T06:08:10;32.90;;;15.93;;
59097;SDS011;44883;52.760;6.610;2022-11-15T06:10:36;44.80;;;33.20;;
59097;SDS011;44883;52.760;6.610;2022-11-15T06:13:02;42.28;;;33.28;;
59097;SDS011;44883;52.760;6.610;2022-11-15T06:15:29;43.05;;;34.67;;
59097;SDS011;44883;52.760;6.610;2022-11-15T06:17:56;42.00;;;33.65;;
59097;SDS011;44883;52.760;6.610;2022-11-15T06:20:23;40.33;;;32.85;;
59097;SDS011;44883;52.760;6.610;2022-11-15T06:22:56;42.05;;;33.28;;
59097;SDS011;44883;52.760;6.610;2022-11-15T06:25:22;41.25;;;32.92;;
59097;SDS011;44883;52.760;6.610;2022-11-15T06:27:54;40.00;;;32.75;;
59097;SDS011;44883;52.760;6.610;2022-11-15T06:30:21;40.45;;;31.70;;
59097;SDS011;44883;52.760;6.610;2022-11-15T06:32:48;39.00;;;31.60;;
59097;SDS011;44883;52.760;6.610;2022-11-15T06:35:14;31.63;;;15.88;;
59097;SDS011;44883;52.760;6.610;2022-11-15T06:37:40;38.53;;;30.10;;
59097;SDS011;44883;52.760;6.610;2022-11-15T06:40:07;28.63;;;15.35;;
59097;SDS011;44883;52.760;6.610;2022-11-15T06:42:34;26.55;;;13.45;;
59097;SDS011;44883;52.760;6.610;2022-11-15T06:44:59;36.08;;;31.17;;
59097;SDS011;44883;52.760;6.610;2022-11-15T06:47:25;35.42;;;29.70;;
59097;SDS011;44883;52.760;6.610;2022-11-15T06:49:51;37.05;;;29.67;;
59097;SDS011;44883;52.760;6.610;2022-11-15T06:52:16;35.08;;;29.33;;
59097;SDS011;44883;52.760;6.610;2022-11-15T06:54:44;34.75;;;30.88;;
59097;SDS011;44883;52.760;6.610;2022-11-15T06:57:10;37.35;;;31.75;;
59097;SDS011;44883;52.760;6.610;2022-11-15T06:59:35;26.45;;;14.15;;
59097;SDS011;44883;52.760;6.610;2022-11-15T07:02:01;39.22;;;33.55;;
59097;SDS011;44883;52.760;6.610;2022-11-15T07:04:27;38.30;;;34.15;;
59097;SDS011;44883;52.760;6.610;2022-11-15T07:06:52;36.88;;;32.50;;
59097;SDS011;44883;52.760;6.610;2022-11-15T07:09:18;40.72;;;36.30;;
59097;SDS011;44883;52.760;6.610;2022-11-15T07:11:44;38.00;;;33.05;;
59097;SDS011;44883;52.760;6.610;2022-11-15T07:14:09;33.47;;;29.23;;
59097;SDS011;44883;52.760;6.610;2022-11-15T07:16:35;34.13;;;30.02;;
59097;SDS011;44883;52.760;6.610;2022-11-15T07:19:01;25.42;;;14.60;;
59097;SDS011;44883;52.760;6.610;2022-11-15T07:21:27;33.92;;;28.35;;
59097;SDS011;44883;52.760;6.610;2022-11-15T07:23:53;32.95;;;29.42;;
59097;SDS011;44883;52.760;6.610;2022-11-15T07:26:18;32.60;;;28.10;;
59097;SDS011;44883;52.760;6.610;2022-11-15T07:28:44;34.20;;;28.70;;
59097;SDS011;44883;52.760;6.610;2022-11-15T07:31:09;32.67;;;28.05;;
59097;SDS011;44883;52.760;6.610;2022-11-15T07:33:35;31.83;;;26.85;;
59097;SDS011;44883;52.760;6.610;2022-11-15T07:36:01;24.15;;;13.48;;
59097;SDS011;44883;52.760;6.610;2022-11-15T07:38:29;30.90;;;27.65;;
59097;SDS011;44883;52.760;6.610;2022-11-15T07:41:03;25.20;;;12.95;;
59097;SDS011;44883;52.760;6.610;2022-11-15T07:43:30;32.00;;;27.05;;
59097;SDS011;44883;52.760;6.610;2022-11-15T07:45:58;31.45;;;28.15;;
59097;SDS011;44883;52.760;6.610;2022-11-15T07:48:23;28.80;;;25.77;;
59097;SDS011;44883;52.760;6.610;2022-11-15T07:50:49;31.02;;;27.48;;
59097;SDS011;44883;52.760;6.610;2022-11-15T07:53:15;31.42;;;27.38;;
59097;SDS011;44883;52.760;6.610;2022-11-15T07:55:40;29.92;;;26.45;;
59097;SDS011;44883;52.760;6.610;2022-11-15T07:58:08;31.20;;;27.80;;
59097;SDS011;44883;52.760;6.610;2022-11-15T08:00:35;30.98;;;27.13;;
59097;SDS011;44883;52.760;6.610;2022-11-15T08:03:03;30.15;;;26.88;;
59097;SDS011;44883;52.760;6.610;2022-11-15T08:05:28;26.25;;;13.50;;
59097;SDS011;44883;52.760;6.610;2022-11-15T08:07:57;29.08;;;26.05;;
59097;SDS011;44883;52.760;6.610;2022-11-15T08:10:23;30.08;;;26.13;;
59097;SDS011;44883;52.760;6.610;2022-11-15T08:12:56;29.50;;;26.20;;
59097;SDS011;44883;52.760;6.610;2022-11-15T08:15:23;30.67;;;27.35;;
59097;SDS011;44883;52.760;6.610;2022-11-15T08:17:52;22.30;;;12.57;;
59097;SDS011;44883;52.760;6.610;2022-11-15T08:20:19;32.53;;;28.35;;
59097;SDS011;44883;52.760;6.610;2022-11-15T08:22:45;33.45;;;27.55;;
59097;SDS011;44883;52.760;6.610;2022-11-15T08:25:10;33.17;;;26.88;;
59097;SDS011;44883;52.760;6.610;2022-11-15T08:27:36;31.83;;;28.42;;
59097;SDS011;44883;52.760;6.610;2022-11-15T08:30:02;33.15;;;27.83;;
59097;SDS011;44883;52.760;6.610;2022-11-15T08:32:28;33.22;;;28.48;;
59097;SDS011;44883;52.760;6.610;2022-11-15T08:34:55;32.45;;;28.30;;
59097;SDS011;44883;52.760;6.610;2022-11-15T08:37:20;31.65;;;28.33;;
59097;SDS011;44883;52.760;6.610;2022-11-15T08:39:46;32.42;;;28.88;;
59097;SDS011;44883;52.760;6.610;2022-11-15T08:42:11;35.28;;;29.55;;
59097;SDS011;44883;52.760;6.610;2022-11-15T08:44:38;32.17;;;28.67;;
59097;SDS011;44883;52.760;6.610;2022-11-15T08:47:03;34.30;;;29.50;;
59097;SDS011;44883;52.760;6.610;2022-11-15T08:49:29;31.92;;;28.25;;
59097;SDS011;44883;52.760;6.610;2022-11-15T08:51:55;22.40;;;13.18;;
59097;SDS011;44883;52.760;6.610;2022-11-15T08:54:20;24.33;;;13.13;;
59097;SDS011;44883;52.760;6.610;2022-11-15T08:56:46;32.05;;;28.55;;
59097;SDS011;44883;52.760;6.610;2022-11-15T08:59:12;34.30;;;29.00;;
59097;SDS011;44883;52.760;6.610;2022-11-15T09:01:37;32.28;;;28.88;;
59097;SDS011;44883;52.760;6.610;2022-11-15T09:04:03;31.90;;;27.35;;
59097;SDS011;44883;52.760;6.610;2022-11-15T09:06:29;30.13;;;26.80;;
59097;SDS011;44883;52.760;6.610;2022-11-15T09:08:55;30.25;;;27.15;;
59097;SDS011;44883;52.760;6.610;2022-11-15T09:11:21;31.50;;;26.75;;
59097;SDS011;44883;52.760;6.610;2022-11-15T09:13:48;29.88;;;25.77;;
59097;SDS011;44883;52.760;6.610;2022-11-15T09:16:14;29.25;;;26.15;;
59097;SDS011;44883;52.760;6.610;2022-11-15T09:18:40;29.88;;;26.75;;
59097;SDS011;44883;52.760;6.610;2022-11-15T09:21:06;29.02;;;25.63;;
59097;SDS011;44883;52.760;6.610;2022-11-15T09:23:32;29.60;;;25.65;;
59097;SDS011;44883;52.760;6.610;2022-11-15T09:26:01;27.20;;;24.30;;
59097;SDS011;44883;52.760;6.610;2022-11-15T09:28:28;27.13;;;24.35;;
59097;SDS011;44883;52.760;6.610;2022-11-15T09:31:01;25.98;;;23.17;;
59097;SDS011;44883;52.760;6.610;2022-11-15T09:33:28;24.98;;;22.35;;
59097;SDS011;44883;52.760;6.610;2022-11-15T09:35:53;25.85;;;23.13;;
59097;SDS011;44883;52.760;6.610;2022-11-15T09:38:19;24.80;;;22.08;;
59097;SDS011;44883;52.760;6.610;2022-11-15T09:40:47;25.25;;;22.75;;
59097;SDS011;44883;52.760;6.610;2022-11-15T09:46:12;25.17;;;22.48;;
59097;SDS011;44883;52.760;6.610;2022-11-15T09:48:49;24.30;;;21.83;;
59097;SDS011;44883;52.760;6.610;2022-11-15T09:51:27;24.67;;;22.17;;
59097;SDS011;44883;52.760;6.610;2022-11-15T09:56:52;26.08;;;23.48;;
59097;SDS011;44883;52.760;6.610;2022-11-15T09:59:39;26.30;;;23.63;;
59097;SDS011;44883;52.760;6.610;2022-11-15T10:02:48;25.58;;;22.85;;
59097;SDS011;44883;52.760;6.610;2022-11-15T10:05:24;26.42;;;23.83;;
59097;SDS011;44883;52.760;6.610;2022-11-15T10:08:05;25.88;;;23.23;;
59097;SDS011;44883;52.760;6.610;2022-11-15T10:11:01;25.63;;;22.95;;
59097;SDS011;44883;52.760;6.610;2022-11-15T10:13:36;25.13;;;22.42;;
59097;SDS011;44883;52.760;6.610;2022-11-15T10:19:21;22.77;;;20.48;;
59097;SDS011;44883;52.760;6.610;2022-11-15T10:24:35;22.58;;;20.25;;
59097;SDS011;44883;52.760;6.610;2022-11-15T10:27:08;23.10;;;20.80;;
59097;SDS011;44883;52.760;6.610;2022-11-15T10:29:36;20.08;;;18.13;;
59097;SDS011;44883;52.760;6.610;2022-11-15T10:32:10;20.88;;;18.88;;
59097;SDS011;44883;52.760;6.610;2022-11-15T10:34:37;20.90;;;18.95;;
59097;SDS011;44883;52.760;6.610;2022-11-15T10:37:02;18.50;;;16.70;;
59097;SDS011;44883;52.760;6.610;2022-11-15T10:39:28;18.02;;;16.33;;
59097;SDS011;44883;52.760;6.610;2022-11-15T10:41:54;17.17;;;15.48;;
59097;SDS011;44883;52.760;6.610;2022-11-15T10:44:21;16.20;;;14.60;;
59097;SDS011;44883;52.760;6.610;2022-11-15T10:49:21;14.45;;;11.30;;
59097;SDS011;44883;52.760;6.610;2022-11-15T10:51:56;12.73;;;11.45;;
59097;SDS011;44883;52.760;6.610;2022-11-15T10:56:59;15.02;;;11.90;;
59097;SDS011;44883;52.760;6.610;2022-11-15T10:59:30;12.93;;;11.50;;
59097;SDS011;44883;52.760;6.610;2022-11-15T11:01:58;11.10;;;9.95;;
59097;SDS011;44883;52.760;6.610;2022-11-15T11:04:25;11.68;;;9.40;;
59097;SDS011;44883;52.760;6.610;2022-11-15T11:09:33;10.57;;;8.60;;
59097;SDS011;44883;52.760;6.610;2022-11-15T11:12:04;11.00;;;8.13;;
59097;SDS011;44883;52.760;6.610;2022-11-15T11:14:35;11.48;;;9.35;;
59097;SDS011;44883;52.760;6.610;2022-11-15T11:19:41;12.82;;;9.95;;
59097;SDS011;44883;52.760;6.610;2022-11-15T11:22:38;9.85;;;8.25;;
59097;SDS011;44883;52.760;6.610;2022-11-15T11:30:58;10.82;;;9.05;;
59097;SDS011;44883;52.760;6.610;2022-11-15T11:33:50;11.05;;;9.00;;
59097;SDS011;44883;52.760;6.610;2022-11-15T11:39:10;10.63;;;8.38;;
59097;SDS011;44883;52.760;6.610;2022-11-15T11:54:32;10.93;;;6.80;;
59097;SDS011;44883;52.760;6.610;2022-11-15T12:00:21;10.60;;;7.32;;
59097;SDS011;44883;52.760;6.610;2022-11-15T12:08:31;9.68;;;6.63;;
59097;SDS011;44883;52.760;6.610;2022-11-15T12:13:47;8.45;;;5.70;;
59097;SDS011;44883;52.760;6.610;2022-11-15T12:16:22;8.90;;;5.47;;
59097;SDS011;44883;52.760;6.610;2022-11-15T12:18:53;7.28;;;5.18;;
59097;SDS011;44883;52.760;6.610;2022-11-15T12:27:17;8.30;;;5.78;;
59097;SDS011;44883;52.760;6.610;2022-11-15T12:30:00;7.43;;;4.78;;
59097;SDS011;44883;52.760;6.610;2022-11-15T12:32:37;9.20;;;5.00;;
59097;SDS011;44883;52.760;6.610;2022-11-15T12:35:05;7.82;;;4.57;;
59097;SDS011;44883;52.760;6.610;2022-11-15T12:37:50;8.02;;;4.18;;
59097;SDS011;44883;52.760;6.610;2022-11-15T12:45:42;6.60;;;3.90;;
59097;SDS011;44883;52.760;6.610;2022-11-15T12:58:44;6.40;;;2.80;;
59097;SDS011;44883;52.760;6.610;2022-11-15T13:17:28;4.72;;;2.05;;
59097;SDS011;44883;52.760;6.610;2022-11-15T13:22:39;4.72;;;2.15;;
59097;SDS011;44883;52.760;6.610;2022-11-15T13:27:49;5.40;;;1.98;;
59097;SDS011;44883;52.760;6.610;2022-11-15T13:30:19;7.10;;;1.98;;
59097;SDS011;44883;52.760;6.610;2022-11-15T13:32:47;3.40;;;1.30;;
59097;SDS011;44883;52.760;6.610;2022-11-15T13:35:26;3.17;;;1.67;;
59097;SDS011;44883;52.760;6.610;2022-11-15T13:37:53;4.50;;;1.58;;
59097;SDS011;44883;52.760;6.610;2022-11-15T13:40:33;4.35;;;1.40;;
59097;SDS011;44883;52.760;6.610;2022-11-15T13:43:15;3.92;;;1.40;;
59097;SDS011;44883;52.760;6.610;2022-11-15T13:46:19;3.28;;;1.27;;
59097;SDS011;44883;52.760;6.610;2022-11-15T13:48:50;6.15;;;1.33;;
59097;SDS011;44883;52.760;6.610;2022-11-15T13:51:35;4.03;;;1.60;;
59097;SDS011;44883;52.760;6.610;2022-11-15T13:54:09;8.85;;;2.08;;
59097;SDS011;44883;52.760;6.610;2022-11-15T13:56:53;3.30;;;1.60;;
59097;SDS011;44883;52.760;6.610;2022-11-15T14:02:01;3.67;;;1.88;;
59097;SDS011;44883;52.760;6.610;2022-11-15T14:04:35;3.55;;;1.60;;
59097;SDS011;44883;52.760;6.610;2022-11-15T14:07:03;4.15;;;2.00;;
59097;SDS011;44883;52.760;6.610;2022-11-15T14:09:36;4.97;;;2.25;;
59097;SDS011;44883;52.760;6.610;2022-11-15T14:12:21;5.22;;;2.30;;
59097;SDS011;44883;52.760;6.610;2022-11-15T14:14:47;5.63;;;2.70;;
59097;SDS011;44883;52.760;6.610;2022-11-15T14:17:19;4.57;;;2.80;;
59097;SDS011;44883;52.760;6.610;2022-11-15T14:19:48;4.75;;;3.20;;
59097;SDS011;44883;52.760;6.610;2022-11-15T14:25:13;7.20;;;4.68;;
59097;SDS011;44883;52.760;6.610;2022-11-15T14:27:38;7.57;;;5.00;;
59097;SDS011;44883;52.760;6.610;2022-11-15T14:30:05;7.15;;;5.18;;
59097;SDS011;44883;52.760;6.610;2022-11-15T14:32:47;8.88;;;5.90;;
59097;SDS011;44883;52.760;6.610;2022-11-15T14:35:20;8.65;;;6.07;;
59097;SDS011;44883;52.760;6.610;2022-11-15T14:37:47;9.50;;;6.00;;
59097;SDS011;44883;52.760;6.610;2022-11-15T14:40:17;7.68;;;5.88;;
59097;SDS011;44883;52.760;6.610;2022-11-15T14:42:45;7.72;;;6.15;;
59097;SDS011;44883;52.760;6.610;2022-11-15T14:45:12;8.48;;;6.55;;
59097;SDS011;44883;52.760;6.610;2022-11-15T14:47:39;7.55;;;5.97;;
59097;SDS011;44883;52.760;6.610;2022-11-15T14:50:05;7.93;;;6.35;;
59097;SDS011;44883;52.760;6.610;2022-11-15T14:52:32;9.15;;;6.47;;
59097;SDS011;44883;52.760;6.610;2022-11-15T14:55:01;8.18;;;7.10;;
59097;SDS011;44883;52.760;6.610;2022-11-15T14:57:34;7.80;;;6.65;;
59097;SDS011;44883;52.760;6.610;2022-11-15T15:00:01;8.85;;;6.65;;
59097;SDS011;44883;52.760;6.610;2022-11-15T15:02:27;9.07;;;6.95;;
59097;SDS011;44883;52.760;6.610;2022-11-15T15:04:53;9.35;;;7.10;;
59097;SDS011;44883;52.760;6.610;2022-11-15T15:07:19;7.32;;;4.28;;
59097;SDS011;44883;52.760;6.610;2022-11-15T15:09:45;7.85;;;6.97;;
59097;SDS011;44883;52.760;6.610;2022-11-15T15:12:15;10.23;;;7.40;;
59097;SDS011;44883;52.760;6.610;2022-11-15T15:14:43;8.27;;;7.47;;
59097;SDS011;44883;52.760;6.610;2022-11-15T15:17:09;9.02;;;7.40;;
59097;SDS011;44883;52.760;6.610;2022-11-15T15:19:35;8.48;;;7.25;;
59097;SDS011;44883;52.760;6.610;2022-11-15T15:22:00;8.07;;;6.45;;
59097;SDS011;44883;52.760;6.610;2022-11-15T15:24:26;7.90;;;6.05;;
59097;SDS011;44883;52.760;6.610;2022-11-15T15:26:51;8.15;;;5.65;;
59097;SDS011;44883;52.760;6.610;2022-11-15T15:29:17;7.47;;;5.95;;
59097;SDS011;44883;52.760;6.610;2022-11-15T15:31:42;7.93;;;5.32;;
59097;SDS011;44883;52.760;6.610;2022-11-15T15:34:08;6.93;;;5.22;;
59097;SDS011;44883;52.760;6.610;2022-11-15T15:36:34;8.43;;;5.35;;
59097;SDS011;44883;52.760;6.610;2022-11-15T15:38:59;7.00;;;5.25;;
59097;SDS011;44883;52.760;6.610;2022-11-15T15:41:25;5.85;;;4.38;;
59097;SDS011;44883;52.760;6.610;2022-11-15T15:43:50;8.07;;;4.50;;
59097;SDS011;44883;52.760;6.610;2022-11-15T15:46:17;6.35;;;4.32;;
59097;SDS011;44883;52.760;6.610;2022-11-15T15:48:43;6.90;;;3.92;;
59097;SDS011;44883;52.760;6.610;2022-11-15T15:51:10;6.43;;;3.75;;
59097;SDS011;44883;52.760;6.610;2022-11-15T15:53:36;5.20;;;3.63;;
59097;SDS011;44883;52.760;6.610;2022-11-15T15:56:02;6.13;;;3.53;;
59097;SDS011;44883;52.760;6.610;2022-11-15T15:58:27;4.78;;;3.28;;
59097;SDS011;44883;52.760;6.610;2022-11-15T16:00:53;7.38;;;3.30;;
59097;SDS011;44883;52.760;6.610;2022-11-15T16:03:19;4.40;;;3.15;;
59097;SDS011;44883;52.760;6.610;2022-11-15T16:05:44;4.60;;;2.97;;
59097;SDS011;44883;52.760;6.610;2022-11-15T16:08:23;4.82;;;2.80;;
59097;SDS011;44883;52.760;6.610;2022-11-15T16:10:50;5.32;;;2.50;;
59097;SDS011;44883;52.760;6.610;2022-11-15T16:13:15;5.30;;;2.38;;
59097;SDS011;44883;52.760;6.610;2022-11-15T16:15:42;4.15;;;2.40;;
59097;SDS011;44883;52.760;6.610;2022-11-15T16:18:12;4.15;;;2.08;;
59097;SDS011;44883;52.760;6.610;2022-11-15T16:20:42;3.90;;;2.20;;
59097;SDS011;44883;52.760;6.610;2022-11-15T16:23:18;3.67;;;2.17;;
59097;SDS011;44883;52.760;6.610;2022-11-15T16:25:52;3.67;;;2.03;;
59097;SDS011;44883;52.760;6.610;2022-11-15T16:28:25;3.80;;;2.00;;
59097;SDS011;44883;52.760;6.610;2022-11-15T16:31:08;4.18;;;2.03;;
59097;SDS011;44883;52.760;6.610;2022-11-15T16:33:35;4.38;;;2.20;;
59097;SDS011;44883;52.760;6.610;2022-11-15T16:36:02;5.43;;;1.88;;
59097;SDS011;44883;52.760;6.610;2022-11-15T16:38:28;5.05;;;1.80;;
59097;SDS011;44883;52.760;6.610;2022-11-15T16:40:54;4.68;;;2.03;;
59097;SDS011;44883;52.760;6.610;2022-11-15T16:43:20;3.80;;;1.90;;
59097;SDS011;44883;52.760;6.610;2022-11-15T16:45:46;5.07;;;2.00;;
59097;SDS011;44883;52.760;6.610;2022-11-15T16:48:19;4.55;;;1.80;;
59097;SDS011;44883;52.760;6.610;2022-11-15T16:50:47;4.15;;;1.90;;
59097;SDS011;44883;52.760;6.610;2022-11-15T16:53:13;4.47;;;1.73;;
59097;SDS011;44883;52.760;6.610;2022-11-15T16:55:38;4.68;;;1.55;;
59097;SDS011;44883;52.760;6.610;2022-11-15T16:58:04;3.42;;;1.70;;
59097;SDS011;44883;52.760;6.610;2022-11-15T17:00:30;2.45;;;1.50;;
59097;SDS011;44883;52.760;6.610;2022-11-15T17:02:56;4.38;;;1.70;;
59097;SDS011;44883;52.760;6.610;2022-11-15T17:05:22;4.20;;;1.60;;
59097;SDS011;44883;52.760;6.610;2022-11-15T17:07:49;5.43;;;1.60;;
59097;SDS011;44883;52.760;6.610;2022-11-15T17:10:19;1.15;;;0.90;;
59097;SDS011;44883;52.760;6.610;2022-11-15T17:12:46;3.13;;;1.40;;